Academy, Texas
Current Conditions -  °F | °C
As of 3:55 AM on Wednesday 26 Nov 2014 (Local Time) from KTPL Reporting Station
Clear Clear  
Wind Chill:   Ceiling: Unl
Heat Index:   Visibility: 10mi
Dew Point: -2°   Wind: 7mph
Humidity: 70%   Direction: 180°S
Pressure: 30.12"   Gusts: NA
Location:  30.9809°N, 97.3415°W
Report Text: KTPL 260955Z AUTO 18006KT 10SM CLR 03/M02 A3012 RMK AO1
Loading
Personal Weather Stations






























Interactive Weather Map New forecast layout! Learn more

10-Day Weather Forecast

Advertisements
Track Severe Weather on mobile